Aviation Digital Data Service (ADDS)

Output produced by METARs form (0133 UTC 19 October 2017)
found at http://aviationweather.gov/adds/metars/
 
KDCA 182320Z 1900/1924 19005KT P6SM FEW150 SCT250